Time;durP1;ratioP1;P1;durP2;ratioP2;P2;SDS_P1;SDS_P2;PMS_P1;PMS_P2;Temp;Humidity;BMP_temperature;BMP_pressure;BME280_temperature;BME280_humidity;BME280_pressure;Samples;Min_cycle;Max_cycle;Signal;HPM_P1;HPM_P2
2024/02/09 00:01:56;;;;;;;8.97;4.23;;;12.10;75.70;;;;;;5023446;28;20452;-71
2024/02/09 00:04:21;;;;;;;10.10;3.43;;;12.00;75.70;;;;;;5030918;28;20412;-70
2024/02/09 00:06:47;;;;;;;15.60;3.87;;;12.10;75.70;;;;;;5030746;28;20786;-71
2024/02/09 00:09:13;;;;;;;11.87;4.03;;;12.10;75.50;;;;;;5031204;28;20201;-71
2024/02/09 00:11:39;;;;;;;11.53;3.63;;;12.10;75.70;;;;;;5025579;28;20204;-72
2024/02/09 00:14:05;;;;;;;9.50;3.43;;;12.10;75.90;;;;;;5028184;28;20181;-70
2024/02/09 00:16:31;;;;;;;12.13;3.93;;;12.10;75.90;;;;;;5032137;28;20822;-72
2024/02/09 00:18:57;;;;;;;9.20;3.87;;;12.10;75.80;;;;;;5030657;28;20193;-72
2024/02/09 00:21:22;;;;;;;13.53;4.27;;;12.00;75.70;;;;;;5021163;28;20443;-71
2024/02/09 00:23:48;;;;;;;13.70;4.00;;;12.00;75.80;;;;;;5028490;28;20435;-69
2024/02/09 00:26:14;;;;;;;15.90;3.90;;;12.00;76.20;;;;;;5031867;28;20184;-68
2024/02/09 00:28:39;;;;;;;15.50;4.20;;;12.00;75.90;;;;;;5031519;28;20212;-69
2024/02/09 00:31:05;;;;;;;11.73;4.13;;;12.00;75.90;;;;;;5028186;28;20208;-71
2024/02/09 00:33:30;;;;;;;12.80;4.00;;;12.00;75.90;;;;;;5030493;28;20201;-71
2024/02/09 00:35:56;;;;;;;10.53;3.87;;;12.00;75.40;;;;;;5032087;28;20220;-70
2024/02/09 00:38:22;;;;;;;10.70;4.23;;;12.00;75.70;;;;;;5033684;28;20295;-70
2024/02/09 00:40:48;;;;;;;12.97;3.97;;;11.90;75.70;;;;;;5027815;28;20214;-71
2024/02/09 00:43:15;;;;;;;8.93;3.63;;;11.80;75.90;;;;;;5030423;28;20519;-70
2024/02/09 00:45:41;;;;;;;16.27;4.40;;;11.90;76.50;;;;;;5034037;28;21006;-70
2024/02/09 00:48:07;;;;;;;8.90;3.63;;;11.80;76.50;;;;;;5031069;28;20451;-71
2024/02/09 00:50:33;;;;;;;12.40;4.10;;;11.80;76.70;;;;;;5024392;28;20464;-73
2024/02/09 00:53:04;;;;;;;11.60;3.53;;;11.80;76.80;;;;;;5017371;28;21070;-70
2024/02/09 00:55:30;;;;;;;12.70;3.90;;;11.80;76.80;;;;;;5029732;28;20620;-69
2024/02/09 00:57:58;;;;;;;14.43;4.10;;;11.80;77.00;;;;;;5029348;28;21021;-70
2024/02/09 01:00:25;;;;;;;14.17;4.17;;;11.90;76.40;;;;;;5026235;28;20464;-71
2024/02/09 01:02:51;;;;;;;9.97;3.90;;;11.90;76.50;;;;;;5021198;28;20434;-69
2024/02/09 01:05:18;;;;;;;12.57;4.10;;;11.80;76.70;;;;;;5028721;28;20511;-68
2024/02/09 01:07:44;;;;;;;9.37;4.10;;;11.90;76.40;;;;;;5027001;28;20192;-69
2024/02/09 01:10:11;;;;;;;9.53;3.80;;;11.90;76.50;;;;;;5024583;28;20408;-67
2024/02/09 02:45:51;;;;;;;9.10;4.13;;;11.40;82.20;;;;;;5035475;28;20428;-70
2024/02/09 03:04:41;;;;;;;8.83;3.33;;;11.20;83.70;;;;;;5034770;28;20423;-69
2024/02/09 03:07:06;;;;;;;12.23;3.57;;;11.20;84.00;;;;;;5032807;28;20647;-69
2024/02/09 03:09:32;;;;;;;10.03;3.97;;;11.20;84.00;;;;;;5033052;28;20185;-70
2024/02/09 03:11:59;;;;;;;6.47;3.17;;;11.10;84.00;;;;;;5026416;28;20201;-70
2024/02/09 03:14:27;;;;;;;10.03;4.30;;;11.10;84.10;;;;;;5034509;28;20178;-71
2024/02/09 03:16:54;;;;;;;13.10;4.10;;;11.00;84.60;;;;;;5036226;28;20412;-70
2024/02/09 03:19:20;;;;;;;10.13;3.03;;;11.10;84.70;;;;;;5041855;28;20507;-70
2024/02/09 03:21:46;;;;;;;9.70;3.27;;;11.10;84.30;;;;;;5030495;28;21018;-71
2024/02/09 03:24:12;;;;;;;10.30;3.30;;;11.10;84.10;;;;;;5034656;28;20235;-71
2024/02/09 03:26:37;;;;;;;11.53;3.43;;;11.10;84.30;;;;;;5033395;28;20185;-71
2024/02/09 03:29:03;;;;;;;12.97;3.63;;;11.00;84.60;;;;;;5031119;28;20189;-72
2024/02/09 03:31:31;;;;;;;9.33;3.10;;;11.00;85.00;;;;;;5026906;28;20646;-71
2024/02/09 03:33:57;;;;;;;9.97;2.50;;;11.00;85.20;;;;;;5031484;28;20695;-71
2024/02/09 03:36:23;;;;;;;6.53;2.90;;;11.10;85.20;;;;;;5031503;28;20489;-71
2024/02/09 03:38:49;;;;;;;7.87;2.73;;;11.10;85.00;;;;;;5029627;28;20182;-70
2024/02/09 03:41:15;;;;;;;11.30;3.40;;;11.00;85.20;;;;;;5025452;28;20499;-72
2024/02/09 03:43:40;;;;;;;4.73;2.40;;;11.00;85.30;;;;;;5030897;28;20430;-71
2024/02/09 03:46:06;;;;;;;11.23;3.00;;;10.90;85.60;;;;;;5030886;28;20188;-70
2024/02/09 03:48:32;;;;;;;11.30;3.00;;;10.90;85.90;;;;;;5031139;28;20310;-69
2024/02/09 03:50:58;;;;;;;9.77;2.47;;;10.90;86.00;;;;;;5025845;28;20208;-69
2024/02/09 03:53:23;;;;;;;13.77;3.17;;;10.80;86.20;;;;;;5030429;28;20415;-70
2024/02/09 03:55:49;;;;;;;6.10;3.57;;;10.80;86.30;;;;;;5030291;28;20237;-69
2024/02/09 03:58:17;;;;;;;6.07;3.17;;;10.90;86.50;;;;;;5031785;28;20652;-69
2024/02/09 04:00:43;;;;;;;9.57;3.67;;;10.80;86.50;;;;;;5026138;28;20632;-71
2024/02/09 04:03:08;;;;;;;6.97;3.23;;;10.80;86.60;;;;;;5026500;28;20516;-69
2024/02/09 04:05:36;;;;;;;8.03;3.70;;;10.80;86.60;;;;;;5032504;28;20499;-70
2024/02/09 04:08:04;;;;;;;7.13;3.47;;;10.70;86.80;;;;;;5030669;28;20830;-69
2024/02/09 04:10:29;;;;;;;7.43;3.33;;;10.70;86.90;;;;;;5024921;28;20567;-70
2024/02/09 04:12:55;;;;;;;9.33;2.80;;;10.70;86.90;;;;;;5024469;28;20774;-71
2024/02/09 04:15:21;;;;;;;6.07;2.87;;;10.80;87.00;;;;;;5026570;28;20244;-71
2024/02/09 04:17:51;;;;;;;5.60;2.60;;;10.80;86.90;;;;;;5032879;28;20200;-71
2024/02/09 04:20:18;;;;;;;6.73;2.77;;;10.80;86.90;;;;;;5031566;28;20205;-70
2024/02/09 04:22:44;;;;;;;7.77;3.10;;;10.80;86.90;;;;;;5022502;28;20461;-70
2024/02/09 04:25:09;;;;;;;6.90;2.60;;;10.80;86.90;;;;;;5028923;28;20440;-69
2024/02/09 04:27:36;;;;;;;7.17;2.50;;;10.80;86.90;;;;;;5035058;28;20181;-70
2024/02/09 04:30:02;;;;;;;6.27;3.40;;;10.80;86.80;;;;;;5032560;28;20247;-70
2024/02/09 04:32:29;;;;;;;11.40;2.97;;;10.80;86.60;;;;;;5019464;28;20440;-70
2024/02/09 04:34:55;;;;;;;5.17;2.30;;;10.90;86.50;;;;;;5035347;28;20208;-70
2024/02/09 04:37:21;;;;;;;13.63;2.47;;;10.90;86.20;;;;;;5041752;28;20490;-67
2024/02/09 04:39:47;;;;;;;7.30;2.50;;;10.90;86.00;;;;;;5041644;28;20238;-69
2024/02/09 04:42:13;;;;;;;6.83;2.43;;;11.00;85.70;;;;;;5032903;28;20219;-69
2024/02/09 04:44:38;;;;;;;4.17;2.40;;;11.00;85.30;;;;;;5033352;28;20408;-68
2024/02/09 04:47:04;;;;;;;4.83;2.20;;;11.00;85.20;;;;;;5039348;28;20193;-70
2024/02/09 04:49:30;;;;;;;4.47;2.30;;;11.10;85.20;;;;;;5035958;28;20276;-71
2024/02/09 04:51:56;;;;;;;3.80;2.30;;;11.10;84.60;;;;;;5022951;28;20252;-69
2024/02/09 04:54:21;;;;;;;5.83;2.00;;;11.20;84.00;;;;;;5025091;28;20424;-70
2024/02/09 04:56:48;;;;;;;5.90;2.20;;;11.20;83.70;;;;;;5032324;28;20215;-67
2024/02/09 04:59:13;;;;;;;4.57;2.30;;;11.30;83.40;;;;;;5030699;28;20192;-70
2024/02/09 05:01:40;;;;;;;4.30;2.30;;;11.30;83.30;;;;;;5023133;28;20447;-69
2024/02/09 05:04:09;;;;;;;6.50;2.40;;;11.30;83.10;;;;;;5032721;28;20208;-70
2024/02/09 05:06:35;;;;;;;11.10;1.93;;;11.40;83.00;;;;;;5032591;28;20516;-69
2024/02/09 05:09:03;;;;;;;5.00;1.73;;;11.30;83.10;;;;;;5034569;28;20444;-69
2024/02/09 05:11:30;;;;;;;3.00;1.60;;;11.30;82.80;;;;;;5028063;28;20213;-68
2024/02/09 05:13:56;;;;;;;3.10;1.50;;;11.30;82.80;;;;;;5030727;28;20832;-70
2024/02/09 05:16:23;;;;;;;3.67;1.60;;;11.40;82.80;;;;;;5035502;28;20459;-70
2024/02/09 05:18:49;;;;;;;5.33;2.13;;;11.40;82.70;;;;;;5031422;28;20921;-69
2024/02/09 05:21:15;;;;;;;3.17;1.90;;;11.40;82.50;;;;;;5024988;28;20465;-70
2024/02/09 05:23:40;;;;;;;3.83;1.83;;;11.40;82.50;;;;;;5025271;28;20495;-71
2024/02/09 05:26:12;;;;;;;7.23;2.03;;;11.50;82.40;;;;;;5033864;28;20810;-72
2024/02/09 05:28:40;;;;;;;4.07;2.17;;;11.40;82.50;;;;;;5030877;28;20452;-71
2024/02/09 05:31:17;;;;;;;4.43;1.67;;;11.40;82.40;;;;;;5020547;28;20904;-71
2024/02/09 05:33:43;;;;;;;4.03;1.40;;;11.40;82.20;;;;;;5019934;28;20438;-71
2024/02/09 05:36:23;;;;;;;3.77;2.10;;;11.50;82.10;;;;;;5028923;28;20467;-69
2024/02/09 05:38:50;;;;;;;3.70;2.20;;;11.50;81.90;;;;;;5029029;28;20408;-69
2024/02/09 05:41:16;;;;;;;3.37;1.60;;;11.50;81.80;;;;;;5022080;28;20483;-69
2024/02/09 05:43:43;;;;;;;2.70;1.97;;;11.60;81.80;;;;;;5019847;28;20920;-69
2024/02/09 05:46:09;;;;;;;3.33;1.57;;;11.60;81.70;;;;;;5021966;28;20821;-69
2024/02/09 05:48:35;;;;;;;2.73;1.50;;;11.60;81.80;;;;;;5029439;28;20420;-70
2024/02/09 05:51:01;;;;;;;2.50;1.50;;;11.50;81.70;;;;;;5019537;28;20583;-69
2024/02/09 05:53:27;;;;;;;6.23;1.70;;;11.50;81.70;;;;;;5018627;28;20896;-69
2024/02/09 05:55:53;;;;;;;3.10;2.00;;;11.50;81.50;;;;;;5029169;28;20472;-70
2024/02/09 05:58:23;;;;;;;4.60;1.70;;;11.60;81.40;;;;;;5028435;28;20196;-71
2024/02/09 06:00:52;;;;;;;3.87;1.50;;;11.60;81.40;;;;;;5022021;28;20281;-69
2024/02/09 06:03:17;;;;;;;4.53;1.90;;;11.60;81.10;;;;;;5022503;28;20789;-69
2024/02/09 06:05:43;;;;;;;5.13;1.93;;;11.60;81.20;;;;;;5030798;28;20423;-69
2024/02/09 06:08:09;;;;;;;4.73;1.30;;;11.60;81.40;;;;;;5027738;28;20303;-72
2024/02/09 06:10:36;;;;;;;2.10;1.70;;;11.60;81.10;;;;;;5029053;28;20347;-71
2024/02/09 06:13:01;;;;;;;1.97;1.50;;;11.60;80.80;;;;;;5023794;28;20195;-71
2024/02/09 06:15:27;;;;;;;3.47;1.53;;;11.60;80.80;;;;;;5032655;28;20813;-72
2024/02/09 06:17:53;;;;;;;3.20;1.70;;;11.60;80.60;;;;;;5032634;28;20177;-70
2024/02/09 06:20:22;;;;;;;2.50;1.20;;;11.60;80.60;;;;;;5029812;28;20543;-71
2024/02/09 06:22:49;;;;;;;3.10;1.40;;;11.70;80.50;;;;;;5027313;28;20199;-71
2024/02/09 06:25:15;;;;;;;3.13;1.40;;;11.70;80.20;;;;;;5032397;28;20464;-71
2024/02/09 06:27:40;;;;;;;3.13;1.50;;;11.70;80.20;;;;;;5028470;28;20420;-69
2024/02/09 06:30:06;;;;;;;2.70;1.50;;;11.70;80.20;;;;;;5028974;28;20429;-71
2024/02/09 06:32:32;;;;;;;5.40;1.70;;;11.70;80.20;;;;;;5028713;28;20181;-72
2024/02/09 06:34:59;;;;;;;2.90;1.60;;;11.70;80.20;;;;;;5028777;28;21193;-71
2024/02/09 06:37:25;;;;;;;1.30;1.20;;;11.70;80.00;;;;;;5027485;28;20259;-71
2024/02/09 06:39:50;;;;;;;8.60;1.70;;;11.70;79.70;;;;;;5032859;28;20476;-69
2024/02/09 06:42:20;;;;;;;2.27;1.50;;;11.70;79.90;;;;;;5027663;28;20209;-68
2024/02/09 06:44:46;;;;;;;3.23;1.60;;;11.70;79.90;;;;;;5035972;28;20268;-72
2024/02/09 06:47:12;;;;;;;4.60;1.67;;;11.70;79.90;;;;;;5038544;28;20447;-71
2024/02/09 06:49:46;;;;;;;2.90;1.43;;;11.70;79.60;;;;;;5042590;28;20196;-70
2024/02/09 06:52:12;;;;;;;3.90;1.60;;;11.70;79.60;;;;;;5029557;28;20460;-72
2024/02/09 06:54:38;;;;;;;2.67;1.40;;;11.70;79.70;;;;;;5035401;28;20428;-71
2024/02/09 06:57:04;;;;;;;2.07;1.50;;;11.70;79.30;;;;;;5033936;28;20463;-72
2024/02/09 06:59:29;;;;;;;2.47;1.83;;;11.70;79.50;;;;;;5035609;28;20459;-71
2024/02/09 07:01:59;;;;;;;2.90;1.40;;;11.70;79.50;;;;;;5021032;28;20209;-71
2024/02/09 07:04:25;;;;;;;2.00;1.40;;;11.70;79.30;;;;;;5029518;28;20192;-69
2024/02/09 07:06:53;;;;;;;1.87;1.37;;;11.70;79.30;;;;;;5032403;28;20424;-70
2024/02/09 07:09:20;;;;;;;2.80;1.70;;;11.70;79.50;;;;;;5033873;28;20185;-69
2024/02/09 07:11:47;;;;;;;2.10;1.10;;;11.70;80.20;;;;;;5023098;28;20459;-72
2024/02/09 07:14:13;;;;;;;1.80;1.30;;;11.60;80.50;;;;;;5030362;28;20925;-74
2024/02/09 07:16:40;;;;;;;7.47;1.87;;;11.50;80.60;;;;;;5031447;28;20511;-71
2024/02/09 07:19:05;;;;;;;1.73;1.30;;;11.40;81.70;;;;;;5034628;28;20427;-69
2024/02/09 07:21:31;;;;;;;2.60;1.70;;;11.40;82.10;;;;;;5028883;28;20455;-70
2024/02/09 07:23:58;;;;;;;6.80;2.00;;;11.40;82.20;;;;;;5030789;28;20189;-71
2024/02/09 07:26:24;;;;;;;2.40;1.60;;;11.30;82.20;;;;;;5033445;28;20200;-73
2024/02/09 07:28:51;;;;;;;3.10;1.67;;;11.30;82.40;;;;;;5030607;28;20424;-73
2024/02/09 07:31:18;;;;;;;2.97;1.63;;;11.30;82.10;;;;;;5028211;28;20464;-72
2024/02/09 07:33:44;;;;;;;6.17;1.90;;;11.40;82.10;;;;;;5032199;28;20439;-73
2024/02/09 07:36:10;;;;;;;5.00;1.80;;;11.40;81.90;;;;;;5027819;28;20487;-70
2024/02/09 07:38:36;;;;;;;2.40;1.53;;;11.50;81.70;;;;;;5028827;28;20264;-69
2024/02/09 07:41:05;;;;;;;4.90;1.83;;;11.50;81.20;;;;;;5028489;28;20487;-71
2024/02/09 07:43:33;;;;;;;6.20;2.03;;;11.50;80.80;;;;;;5029246;28;20209;-72
2024/02/09 07:45:59;;;;;;;4.73;2.10;;;11.60;80.80;;;;;;5032604;28;20523;-72
2024/02/09 07:48:25;;;;;;;5.33;2.10;;;11.60;80.60;;;;;;5032744;28;20879;-70
2024/02/09 07:50:52;;;;;;;5.00;1.83;;;11.60;80.80;;;;;;5029105;28;20205;-69
2024/02/09 07:53:18;;;;;;;2.87;1.40;;;11.60;80.50;;;;;;5026873;28;20312;-71
2024/02/09 07:55:44;;;;;;;2.80;1.57;;;11.70;80.00;;;;;;5033165;28;20513;-71
2024/02/09 07:58:10;;;;;;;3.83;1.80;;;11.70;80.00;;;;;;5031795;28;20208;-71
2024/02/09 08:00:36;;;;;;;2.80;1.90;;;11.80;79.90;;;;;;5025675;28;20212;-71
2024/02/09 08:03:01;;;;;;;2.10;1.67;;;11.80;79.30;;;;;;5027862;28;20428;-71
2024/02/09 08:05:27;;;;;;;2.80;1.70;;;11.80;79.50;;;;;;5030294;28;20185;-71
2024/02/09 08:07:53;;;;;;;2.60;1.63;;;11.90;78.60;;;;;;5032475;28;20213;-69
2024/02/09 08:10:19;;;;;;;3.77;1.77;;;12.00;78.10;;;;;;5027638;28;20216;-71
2024/02/09 08:12:45;;;;;;;5.20;2.43;;;12.10;78.00;;;;;;5027742;28;20432;-71
2024/02/09 08:15:11;;;;;;;3.67;1.83;;;12.20;78.00;;;;;;5032077;28;21199;-71
2024/02/09 08:17:52;;;;;;;6.87;2.27;;;12.30;77.60;;;;;;5031095;28;20513;-70
2024/02/09 08:20:19;;;;;;;3.73;1.80;;;12.30;77.30;;;;;;5028040;28;20439;-72
2024/02/09 08:22:48;;;;;;;3.07;1.80;;;12.30;77.30;;;;;;5018774;28;20517;-70
2024/02/09 08:25:14;;;;;;;3.10;1.97;;;12.40;77.10;;;;;;5030011;28;20448;-69
2024/02/09 08:27:40;;;;;;;6.20;2.40;;;12.40;77.00;;;;;;5031431;28;20443;-71
2024/02/09 08:30:09;;;;;;;6.47;2.17;;;12.50;77.40;;;;;;5025835;28;21016;-71
2024/02/09 08:32:40;;;;;;;4.17;2.37;;;12.50;77.10;;;;;;5026902;28;20446;-71
2024/02/09 08:35:07;;;;;;;5.03;1.90;;;12.60;77.30;;;;;;5030131;28;20991;-71
2024/02/09 08:37:33;;;;;;;5.70;1.80;;;12.70;76.80;;;;;;5031564;28;20423;-69
2024/02/09 08:39:59;;;;;;;7.40;2.10;;;12.80;76.50;;;;;;5030405;28;20438;-71
2024/02/09 08:42:26;;;;;;;4.37;1.80;;;13.00;75.40;;;;;;5022483;28;20542;-72
2024/02/09 08:44:53;;;;;;;8.40;2.47;;;13.10;75.10;;;;;;5031413;28;20494;-71
2024/02/09 08:47:18;;;;;;;2.20;1.80;;;13.20;75.10;;;;;;5032110;28;20495;-72
2024/02/09 08:49:44;;;;;;;6.20;2.77;;;13.20;74.50;;;;;;5030847;28;20443;-69
2024/02/09 08:52:12;;;;;;;5.13;2.20;;;13.30;73.70;;;;;;5019000;28;20856;-71
2024/02/09 08:54:38;;;;;;;5.27;2.10;;;13.30;73.60;;;;;;5013146;28;20185;-71
2024/02/09 08:57:03;;;;;;;7.07;2.03;;;13.30;73.60;;;;;;5030313;28;20511;-73
2024/02/09 08:59:30;;;;;;;4.80;1.97;;;13.20;73.50;;;;;;5030460;28;21051;-70
2024/02/09 09:01:56;;;;;;;4.70;2.20;;;13.20;73.30;;;;;;5026314;28;20581;-70
2024/02/09 09:04:22;;;;;;;3.90;1.90;;;13.20;73.60;;;;;;5024908;28;20428;-71
2024/02/09 09:06:47;;;;;;;4.53;1.83;;;13.30;72.70;;;;;;5029830;28;20474;-72
2024/02/09 09:09:14;;;;;;;3.90;1.83;;;13.30;72.90;;;;;;5031181;28;20208;-69
2024/02/09 09:11:41;;;;;;;5.23;2.13;;;13.20;73.20;;;;;;5021843;28;20288;-71
2024/02/09 09:14:10;;;;;;;4.00;2.37;;;13.40;72.60;;;;;;5026903;28;20942;-72
2024/02/09 09:16:39;;;;;;;8.93;2.07;;;13.50;72.30;;;;;;5029676;28;20923;-72
2024/02/09 09:19:07;;;;;;;6.27;2.67;;;13.50;72.10;;;;;;5031385;28;20432;-72
2024/02/09 09:21:33;;;;;;;3.30;1.70;;;13.70;71.70;;;;;;5022823;28;20471;-71
2024/02/09 09:23:59;;;;;;;9.33;2.27;;;13.80;71.00;;;;;;5032724;28;20960;-71
2024/02/09 09:26:30;;;;;;;6.50;2.37;;;13.80;70.40;;;;;;5032414;28;20542;-71
2024/02/09 09:28:56;;;;;;;7.63;1.87;;;13.90;70.50;;;;;;5031243;28;20243;-72
2024/02/09 09:31:22;;;;;;;3.93;1.93;;;14.00;69.90;;;;;;5020921;28;20973;-70
2024/02/09 09:33:47;;;;;;;5.40;2.00;;;13.90;69.70;;;;;;5024303;28;20450;-72
2024/02/09 09:36:13;;;;;;;2.70;1.67;;;13.90;69.80;;;;;;5030184;28;20643;-70
2024/02/09 09:38:38;;;;;;;2.80;1.60;;;14.00;69.50;;;;;;5031679;28;20541;-71
2024/02/09 09:41:04;;;;;;;3.47;1.70;;;13.90;69.50;;;;;;5021443;28;20213;-72
2024/02/09 09:43:30;;;;;;;3.43;1.87;;;14.00;69.40;;;;;;5032137;28;20188;-69
2024/02/09 09:45:57;;;;;;;2.60;1.50;;;14.00;69.10;;;;;;5034215;28;20288;-71
2024/02/09 09:48:26;;;;;;;4.77;1.80;;;14.00;69.50;;;;;;5031484;28;20221;-71
2024/02/09 09:50:53;;;;;;;3.80;1.60;;;14.00;68.90;;;;;;5027443;28;20555;-69
2024/02/09 09:53:25;;;;;;;4.83;1.90;;;14.00;68.90;;;;;;5030827;28;20420;-70
2024/02/09 09:55:53;;;;;;;4.40;1.90;;;14.00;68.80;;;;;;5036425;28;20854;-71
2024/02/09 09:58:20;;;;;;;5.23;1.97;;;14.10;68.60;;;;;;5035864;28;20470;-71
2024/02/09 10:00:48;;;;;;;4.80;1.80;;;14.10;68.50;;;;;;5030156;28;20473;-68
2024/02/09 10:03:14;;;;;;;4.47;2.10;;;14.20;68.60;;;;;;5031128;28;20470;-70
2024/02/09 10:05:40;;;;;;;3.03;1.83;;;14.30;68.00;;;;;;5034059;28;20463;-70
2024/02/09 10:08:07;;;;;;;5.70;2.00;;;14.30;68.00;;;;;;5031347;28;20435;-70
2024/02/09 10:10:33;;;;;;;4.63;1.60;;;14.40;68.00;;;;;;5029660;28;20457;-71
2024/02/09 10:13:12;;;;;;;5.53;1.80;;;14.50;67.30;;;;;;5028363;28;20439;-70
2024/02/09 10:15:41;;;;;;;3.10;1.43;;;14.50;67.00;;;;;;5032966;28;20498;-70
2024/02/09 10:18:10;;;;;;;3.97;1.60;;;14.50;67.00;;;;;;5032623;28;20420;-70
2024/02/09 10:20:36;;;;;;;5.63;2.03;;;14.50;66.90;;;;;;5029105;28;20494;-72
2024/02/09 10:23:03;;;;;;;4.00;1.87;;;14.50;67.00;;;;;;5028024;28;20538;-71
2024/02/09 10:25:33;;;;;;;3.20;1.60;;;14.40;66.90;;;;;;5032718;28;20424;-71
2024/02/09 10:28:00;;;;;;;7.40;1.80;;;14.50;67.00;;;;;;5032488;28;20900;-70
2024/02/09 10:30:31;;;;;;;4.27;1.97;;;14.50;67.20;;;;;;5027959;28;20465;-71
2024/02/09 10:32:57;;;;;;;4.90;1.90;;;14.50;67.00;;;;;;5024755;28;20505;-71
2024/02/09 10:35:23;;;;;;;4.70;1.90;;;14.50;66.90;;;;;;5030500;28;20482;-72
2024/02/09 10:37:49;;;;;;;5.13;1.80;;;14.40;66.70;;;;;;5033170;28;20417;-71
2024/02/09 10:40:16;;;;;;;7.43;2.10;;;14.50;67.00;;;;;;5029573;28;20641;-71
2024/02/09 10:42:45;;;;;;;3.07;1.80;;;14.50;67.00;;;;;;5022294;28;20421;-71
2024/02/09 10:45:12;;;;;;;2.70;1.90;;;14.50;67.00;;;;;;5018894;28;20930;-73
2024/02/09 10:47:38;;;;;;;5.97;1.90;;;14.60;66.70;;;;;;5032116;28;20800;-71
2024/02/09 10:50:06;;;;;;;3.00;1.70;;;14.60;66.70;;;;;;5033697;28;20425;-69
2024/02/09 10:52:37;;;;;;;4.37;1.90;;;14.60;66.60;;;;;;5018463;28;20442;-70
2024/02/09 10:55:06;;;;;;;4.10;1.70;;;14.70;66.60;;;;;;5027447;28;20559;-71
2024/02/09 10:57:34;;;;;;;15.63;2.20;;;14.70;66.10;;;;;;5030220;28;20444;-71
2024/02/09 11:00:00;;;;;;;4.13;1.93;;;14.70;66.30;;;;;;5031227;28;20456;-70
2024/02/09 11:02:29;;;;;;;4.10;1.50;;;14.60;66.30;;;;;;5020264;28;20430;-71
2024/02/09 11:04:59;;;;;;;6.43;1.80;;;14.60;66.40;;;;;;5029814;28;20818;-72
2024/02/09 11:07:25;;;;;;;5.90;2.00;;;14.80;66.30;;;;;;5031638;28;20406;-71
2024/02/09 11:09:51;;;;;;;5.93;1.63;;;14.80;65.80;;;;;;5028109;28;20991;-70
2024/02/09 11:12:19;;;;;;;6.03;2.07;;;14.70;65.70;;;;;;5026578;28;20485;-70
2024/02/09 11:14:45;;;;;;;5.00;1.50;;;14.80;65.80;;;;;;5027805;28;20472;-69
2024/02/09 11:17:12;;;;;;;9.37;1.80;;;14.80;66.00;;;;;;5031553;28;20416;-72
2024/02/09 11:19:39;;;;;;;2.63;1.60;;;14.80;66.00;;;;;;5024528;28;20419;-71
2024/02/09 11:22:07;;;;;;;3.13;1.43;;;14.90;65.80;;;;;;5022138;28;20505;-72
2024/02/09 11:24:33;;;;;;;5.03;1.90;;;14.90;65.80;;;;;;5032939;28;20417;-71
2024/02/09 11:27:01;;;;;;;4.30;1.60;;;15.00;65.60;;;;;;5031512;28;20459;-71
2024/02/09 11:29:27;;;;;;;4.40;1.70;;;15.00;65.10;;;;;;5033001;28;20433;-68
2024/02/09 11:31:58;;;;;;;3.60;1.60;;;14.90;65.30;;;;;;5024720;28;20474;-70
2024/02/09 11:34:25;;;;;;;4.60;1.43;;;15.00;65.30;;;;;;5021043;28;20533;-71
2024/02/09 11:37:00;;;;;;;3.87;1.50;;;15.00;65.00;;;;;;5031111;28;20475;-72
2024/02/09 11:39:26;;;;;;;2.37;1.80;;;14.90;65.10;;;;;;5028635;28;20428;-71
2024/02/09 11:41:52;;;;;;;3.10;1.80;;;14.90;65.40;;;;;;5028028;28;20460;-69
2024/02/09 11:44:19;;;;;;;3.77;1.70;;;14.90;65.30;;;;;;5025705;28;20417;-70
2024/02/09 11:46:49;;;;;;;3.67;1.60;;;14.90;65.40;;;;;;5031181;28;20206;-72
2024/02/09 11:49:15;;;;;;;4.87;1.83;;;14.80;65.10;;;;;;5031439;28;20453;-69
2024/02/09 11:51:41;;;;;;;2.40;1.70;;;14.80;65.40;;;;;;5023516;28;20456;-70
2024/02/09 11:54:11;;;;;;;4.50;1.60;;;14.80;65.40;;;;;;5027861;28;20420;-72
2024/02/09 11:56:38;;;;;;;5.33;2.00;;;14.80;65.30;;;;;;5031588;28;20487;-72
2024/02/09 11:59:04;;;;;;;3.40;1.60;;;14.70;65.40;;;;;;5034610;28;20424;-70
2024/02/09 12:01:30;;;;;;;5.00;2.00;;;14.70;65.60;;;;;;5023859;28;20461;-69
2024/02/09 12:03:57;;;;;;;3.50;1.80;;;14.80;65.60;;;;;;5026308;28;20286;-72
2024/02/09 12:06:23;;;;;;;5.80;1.93;;;14.70;65.60;;;;;;5031932;28;20456;-69
2024/02/09 12:08:53;;;;;;;4.87;2.10;;;14.80;65.60;;;;;;5031280;28;20412;-70
2024/02/09 12:11:19;;;;;;;3.33;1.77;;;14.70;65.70;;;;;;5021954;28;20453;-71
2024/02/09 12:13:46;;;;;;;4.37;2.30;;;14.70;65.60;;;;;;5028594;28;20791;-71
2024/02/09 12:16:15;;;;;;;5.57;2.37;;;14.70;65.70;;;;;;5032784;28;20473;-71
2024/02/09 12:18:46;;;;;;;3.93;1.73;;;14.60;66.00;;;;;;5032772;28;20467;-71
2024/02/09 12:21:14;;;;;;;3.20;2.10;;;14.50;66.00;;;;;;5022925;28;20476;-71
2024/02/09 12:23:40;;;;;;;2.70;1.50;;;14.50;66.10;;;;;;5026353;28;20433;-70
2024/02/09 12:26:08;;;;;;;2.70;1.43;;;14.50;66.10;;;;;;5032780;28;20780;-70
2024/02/09 12:28:35;;;;;;;5.00;1.90;;;14.50;66.10;;;;;;5034334;28;20265;-71
2024/02/09 12:31:04;;;;;;;7.03;2.33;;;14.50;66.70;;;;;;5019568;28;20506;-71
2024/02/09 12:33:30;;;;;;;4.33;2.03;;;14.50;67.20;;;;;;5027151;28;20480;-70
2024/02/09 12:36:08;;;;;;;5.30;2.30;;;14.40;67.30;;;;;;5033736;28;20973;-72
2024/02/09 12:38:38;;;;;;;4.73;1.90;;;14.30;67.70;;;;;;5035512;28;20429;-70
2024/02/09 12:41:04;;;;;;;3.20;1.80;;;14.30;68.00;;;;;;5028456;28;20460;-72
2024/02/09 12:43:30;;;;;;;3.70;1.60;;;14.30;68.00;;;;;;5034726;28;20427;-72
2024/02/09 12:45:56;;;;;;;4.40;1.70;;;14.20;68.00;;;;;;5032412;28;20514;-71
2024/02/09 12:48:22;;;;;;;6.63;2.30;;;14.20;68.30;;;;;;5031580;28;20181;-70
2024/02/09 12:50:52;;;;;;;2.30;1.50;;;14.20;68.50;;;;;;5028224;28;20262;-71
2024/02/09 12:53:18;;;;;;;5.00;2.10;;;14.20;68.30;;;;;;5027129;28;20432;-70
2024/02/09 12:55:46;;;;;;;3.70;2.00;;;14.20;68.30;;;;;;5032180;28;20467;-70
2024/02/09 12:58:12;;;;;;;5.70;2.00;;;14.20;68.20;;;;;;5025121;28;20486;-70
2024/02/09 13:00:38;;;;;;;4.63;2.07;;;14.20;69.80;;;;;;5024253;28;20552;-72
2024/02/09 13:03:08;;;;;;;3.50;1.90;;;14.00;70.70;;;;;;5021327;28;20490;-71
2024/02/09 13:05:33;;;;;;;4.03;1.90;;;13.80;71.40;;;;;;5031628;28;20438;-69
2024/02/09 13:08:00;;;;;;;2.50;1.73;;;13.70;72.60;;;;;;5031326;28;20974;-70
2024/02/09 13:10:26;;;;;;;4.37;1.87;;;13.60;73.50;;;;;;5029711;28;20201;-70
2024/02/09 13:12:53;;;;;;;6.90;1.80;;;13.60;74.20;;;;;;5032754;28;20432;-72
2024/02/09 13:15:20;;;;;;;2.57;1.63;;;13.50;73.90;;;;;;5034022;28;20472;-71
2024/02/09 13:17:48;;;;;;;4.50;2.07;;;13.50;74.00;;;;;;5035013;28;20627;-70
2024/02/09 13:20:18;;;;;;;4.80;2.40;;;13.60;73.90;;;;;;5033255;28;20420;-72
2024/02/09 13:22:44;;;;;;;6.40;2.03;;;13.70;73.70;;;;;;5027840;28;20474;-72
2024/02/09 13:25:13;;;;;;;3.47;1.80;;;13.70;72.30;;;;;;5033666;28;20417;-70
2024/02/09 13:27:42;;;;;;;2.60;1.97;;;13.70;72.00;;;;;;5037908;28;20855;-68
2024/02/09 13:30:08;;;;;;;4.80;1.70;;;13.80;71.60;;;;;;5035568;28;20872;-70
2024/02/09 13:32:35;;;;;;;4.10;2.00;;;13.70;71.30;;;;;;5035071;28;20432;-71
2024/02/09 13:35:11;;;;;;;3.67;1.70;;;13.80;71.70;;;;;;5036026;28;20472;-70
2024/02/09 13:37:44;;;;;;;3.23;2.03;;;13.80;70.50;;;;;;5036535;28;20423;-74
2024/02/09 13:40:15;;;;;;;4.30;2.00;;;13.80;70.80;;;;;;5031449;28;20522;-70
2024/02/09 13:42:48;;;;;;;5.23;2.17;;;13.80;71.10;;;;;;5027386;28;20527;-70
2024/02/09 13:45:14;;;;;;;3.00;1.70;;;13.80;71.40;;;;;;5034840;28;20988;-70
2024/02/09 13:47:41;;;;;;;4.73;2.10;;;13.80;71.10;;;;;;5034280;28;20789;-68
2024/02/09 13:50:10;;;;;;;4.07;1.50;;;13.80;71.00;;;;;;5031714;28;20423;-71
2024/02/09 13:52:39;;;;;;;3.90;1.70;;;13.90;70.80;;;;;;5032513;28;20525;-71
2024/02/09 13:55:06;;;;;;;5.90;2.30;;;13.90;70.40;;;;;;5033974;28;20495;-70
2024/02/09 13:57:35;;;;;;;6.23;2.33;;;14.00;70.40;;;;;;5035383;28;20932;-71
2024/02/09 14:00:07;;;;;;;4.20;2.47;;;14.00;69.90;;;;;;5032754;28;20430;-70
2024/02/09 14:02:33;;;;;;;5.53;1.97;;;14.00;69.80;;;;;;5028586;28;20428;-72
2024/02/09 14:05:00;;;;;;;19.10;3.10;;;14.00;70.40;;;;;;5032257;28;20493;-70
2024/02/09 14:07:26;;;;;;;7.43;1.93;;;14.00;70.40;;;;;;5034347;28;20227;-72
2024/02/09 14:09:52;;;;;;;3.90;1.90;;;14.10;70.50;;;;;;5034323;28;20416;-70
2024/02/09 14:12:18;;;;;;;2.67;1.90;;;14.10;70.50;;;;;;5029813;28;20523;-72
2024/02/09 14:14:43;;;;;;;8.47;2.03;;;14.10;70.80;;;;;;5034330;28;20205;-70
2024/02/09 14:17:11;;;;;;;4.53;2.63;;;14.10;70.80;;;;;;5045888;28;20177;-70
2024/02/09 14:19:36;;;;;;;4.73;2.17;;;14.10;71.10;;;;;;5039514;28;20212;-70
2024/02/09 14:22:04;;;;;;;3.17;1.90;;;14.20;71.00;;;;;;5029859;28;21028;-71
2024/02/09 14:24:31;;;;;;;4.93;2.20;;;14.20;71.00;;;;;;5032280;28;20572;-70
2024/02/09 14:26:58;;;;;;;6.07;2.20;;;14.20;71.00;;;;;;5036109;28;20459;-72
2024/02/09 14:29:24;;;;;;;7.63;2.70;;;14.10;71.10;;;;;;5031960;28;20428;-71
2024/02/09 14:31:49;;;;;;;5.13;2.00;;;14.10;71.10;;;;;;5025619;28;20461;-72
2024/02/09 14:34:15;;;;;;;5.10;2.10;;;14.10;71.10;;;;;;5029103;28;20205;-71